Time;durP1;ratioP1;P1;durP2;ratioP2;P2;SDS_P1;SDS_P2;PMS_P1;PMS_P2;Temp;Humidity;BMP_temperature;BMP_pressure;BME280_temperature;BME280_humidity;BME280_pressure;Samples;Min_cycle;Max_cycle;Signal;HPM_P1;HPM_P2
2022/05/25 00:01:48;;;;;;;1.08;1.08;;;17.30;97.00;;;;;;5055397;28;20212;-68
2022/05/25 00:04:15;;;;;;;1.13;1.13;;;17.30;97.20;;;;;;5055366;28;20719;-68
2022/05/25 00:06:42;;;;;;;1.08;1.08;;;17.30;97.10;;;;;;5055456;28;20222;-68
2022/05/25 00:09:09;;;;;;;1.25;1.08;;;17.30;96.70;;;;;;5054996;28;20241;-69
2022/05/25 00:11:35;;;;;;;0.95;0.95;;;17.30;96.50;;;;;;5056278;28;20549;-68
2022/05/25 00:14:05;;;;;;;1.38;1.38;;;17.30;96.20;;;;;;5055713;28;20204;-68
2022/05/25 00:16:32;;;;;;;1.13;1.10;;;17.30;96.30;;;;;;5056033;28;20567;-68
2022/05/25 00:21:43;;;;;;;1.50;1.40;;;17.30;96.50;;;;;;5056154;28;20195;-68
2022/05/25 00:24:10;;;;;;;2.10;1.90;;;17.30;96.40;;;;;;5055883;28;20291;-68
2022/05/25 00:26:37;;;;;;;1.27;1.17;;;17.30;95.90;;;;;;5055629;28;20231;-68
2022/05/25 00:29:06;;;;;;;1.40;1.30;;;17.20;95.80;;;;;;5055956;28;20200;-68
2022/05/25 00:31:33;;;;;;;1.40;1.30;;;17.20;96.10;;;;;;5056069;28;20203;-68
2022/05/25 00:34:00;;;;;;;1.30;1.23;;;17.20;96.30;;;;;;5055397;28;20222;-68
2022/05/25 00:36:28;;;;;;;1.13;1.10;;;17.10;95.90;;;;;;5055709;28;20302;-68
2022/05/25 00:38:55;;;;;;;1.77;1.08;;;17.00;96.00;;;;;;5055416;28;20294;-68
2022/05/25 00:41:24;;;;;;;1.48;1.38;;;16.80;95.70;;;;;;5055673;28;20210;-69
2022/05/25 00:43:51;;;;;;;1.60;1.17;;;16.70;95.60;;;;;;5055500;28;20543;-68
2022/05/25 00:46:21;;;;;;;1.23;1.20;;;16.70;97.00;;;;;;5055551;28;20206;-68
2022/05/25 00:48:52;;;;;;;1.30;1.23;;;16.60;95.70;;;;;;5055357;28;20191;-68
2022/05/25 00:51:24;;;;;;;1.30;1.20;;;16.70;96.80;;;;;;5055493;28;20205;-69
2022/05/25 00:53:56;;;;;;;1.30;1.20;;;16.80;97.10;;;;;;5055211;28;20214;-68
2022/05/25 00:56:24;;;;;;;1.20;1.10;;;16.80;97.80;;;;;;5055383;28;20223;-68
2022/05/25 00:58:54;;;;;;;1.25;1.20;;;16.90;98.10;;;;;;5055477;28;20210;-68
2022/05/25 01:01:23;;;;;;;1.23;1.23;;;17.00;98.40;;;;;;5055414;28;20668;-68
2022/05/25 01:03:49;;;;;;;1.27;1.17;;;17.00;98.20;;;;;;5054845;28;20204;-68
2022/05/25 01:06:29;;;;;;;1.65;1.13;;;17.00;98.30;;;;;;5055105;28;20203;-68
2022/05/25 01:09:12;;;;;;;1.20;1.20;;;17.10;98.20;;;;;;5055014;28;20278;-69
2022/05/25 01:11:51;;;;;;;1.40;1.30;;;17.10;97.80;;;;;;5055183;28;20203;-68
2022/05/25 01:14:30;;;;;;;1.10;1.10;;;17.00;97.50;;;;;;5054842;28;20217;-68
2022/05/25 01:17:08;;;;;;;1.27;1.20;;;17.00;97.50;;;;;;5055072;28;20230;-69
2022/05/25 01:19:56;;;;;;;1.00;1.00;;;17.00;97.50;;;;;;5055061;28;20562;-68
2022/05/25 01:22:42;;;;;;;2.00;1.40;;;17.00;97.00;;;;;;5054811;28;20297;-68
2022/05/25 01:25:21;;;;;;;1.30;1.27;;;17.00;97.50;;;;;;5054958;28;20653;-68
2022/05/25 01:27:50;;;;;;;1.10;1.10;;;16.80;95.10;;;;;;5054890;28;20230;-68
2022/05/25 01:30:20;;;;;;;1.10;1.10;;;16.80;96.20;;;;;;5054784;28;20211;-69
2022/05/25 01:33:16;;;;;;;1.48;1.20;;;16.80;95.80;;;;;;5054390;28;20214;-68
2022/05/25 01:35:51;;;;;;;1.13;1.13;;;16.90;95.50;;;;;;5019620;28;20237;-68
2022/05/25 01:38:25;;;;;;;2.67;1.20;;;17.00;95.40;;;;;;5054666;28;20227;-69
2022/05/25 01:41:00;;;;;;;1.10;1.10;;;17.00;95.60;;;;;;5054596;28;20302;-68
2022/05/25 01:43:32;;;;;;;1.30;1.20;;;17.10;95.60;;;;;;5054261;28;20199;-69
2022/05/25 01:46:04;;;;;;;1.00;1.00;;;17.10;94.70;;;;;;5054521;28;20206;-68
2022/05/25 01:48:34;;;;;;;1.55;1.00;;;17.10;94.60;;;;;;5054130;28;20233;-68
2022/05/25 01:51:07;;;;;;;1.30;1.20;;;17.10;94.10;;;;;;5054296;28;20687;-68
2022/05/25 01:53:39;;;;;;;1.52;1.42;;;17.10;94.20;;;;;;5053926;28;20220;-68
2022/05/25 01:56:10;;;;;;;1.00;1.00;;;16.90;93.50;;;;;;5054124;28;20240;-68
2022/05/25 01:58:40;;;;;;;1.00;0.90;;;16.80;94.10;;;;;;5054350;28;20553;-68
2022/05/25 02:01:11;;;;;;;1.30;1.20;;;16.70;94.00;;;;;;5054248;28;20293;-68
2022/05/25 02:06:40;;;;;;;1.88;1.08;;;16.50;93.60;;;;;;5053881;28;20715;-68
2022/05/25 02:09:19;;;;;;;1.13;1.02;;;16.50;95.20;;;;;;5053891;28;20206;-68
2022/05/25 02:11:49;;;;;;;1.13;1.02;;;16.60;94.50;;;;;;5054399;28;20250;-68
2022/05/25 02:14:27;;;;;;;1.40;1.10;;;16.70;93.70;;;;;;5053958;28;20250;-68
2022/05/25 02:17:08;;;;;;;1.40;1.30;;;16.60;93.90;;;;;;5053805;28;20226;-68
2022/05/25 02:19:41;;;;;;;1.10;1.10;;;16.50;93.50;;;;;;5053927;28;20577;-68
2022/05/25 02:22:16;;;;;;;0.90;0.90;;;16.40;93.80;;;;;;5053546;28;20210;-69
2022/05/25 02:24:50;;;;;;;1.15;1.15;;;16.40;93.50;;;;;;5053813;28;20228;-68
2022/05/25 02:27:22;;;;;;;1.40;1.00;;;16.40;93.60;;;;;;5053732;28;20245;-68
2022/05/25 02:29:52;;;;;;;3.10;1.15;;;16.50;93.80;;;;;;5053749;28;20593;-68
2022/05/25 02:32:25;;;;;;;1.00;1.00;;;16.60;93.80;;;;;;5053484;28;20237;-68
2022/05/25 02:34:54;;;;;;;1.30;1.20;;;16.60;94.20;;;;;;5053527;28;20634;-68
2022/05/25 02:37:26;;;;;;;1.20;1.10;;;16.60;94.20;;;;;;5053450;28;20234;-68
2022/05/25 02:39:54;;;;;;;1.10;1.10;;;16.60;94.10;;;;;;5053667;28;20191;-68
2022/05/25 02:42:22;;;;;;;1.00;0.90;;;16.60;93.60;;;;;;5053389;28;20203;-68
2022/05/25 02:44:49;;;;;;;1.20;1.10;;;16.60;94.00;;;;;;5053617;28;20206;-69
2022/05/25 02:47:16;;;;;;;1.00;1.00;;;16.60;94.40;;;;;;5053202;28;20727;-68
2022/05/25 02:49:44;;;;;;;2.75;1.30;;;16.70;94.30;;;;;;5053579;28;20211;-68
2022/05/25 02:52:11;;;;;;;1.08;1.08;;;16.70;93.10;;;;;;5053265;28;20263;-68
2022/05/25 02:54:39;;;;;;;1.08;1.08;;;16.60;93.20;;;;;;5053115;28;20218;-68
2022/05/25 02:57:07;;;;;;;0.90;0.90;;;16.60;93.30;;;;;;5055644;28;20230;-68
2022/05/25 02:59:34;;;;;;;0.93;0.93;;;16.50;93.20;;;;;;5057619;28;20206;-68
2022/05/25 03:02:04;;;;;;;3.33;1.00;;;16.50;92.80;;;;;;5057552;28;20300;-68
2022/05/25 03:04:31;;;;;;;1.10;1.10;;;16.40;93.20;;;;;;5057569;28;20202;-68
2022/05/25 03:06:59;;;;;;;1.10;1.10;;;16.40;93.10;;;;;;5057322;28;20228;-68
2022/05/25 03:09:26;;;;;;;0.90;0.90;;;16.40;93.50;;;;;;5057237;28;20213;-68
2022/05/25 03:11:53;;;;;;;1.10;1.00;;;16.40;92.90;;;;;;5057403;28;20206;-69
2022/05/25 03:14:20;;;;;;;1.05;0.98;;;16.40;93.00;;;;;;5057229;28;20203;-68
2022/05/25 03:16:47;;;;;;;1.10;1.10;;;16.40;93.00;;;;;;5056967;28;20241;-68
2022/05/25 03:19:14;;;;;;;0.90;0.90;;;16.40;93.50;;;;;;5057004;28;20676;-68
2022/05/25 03:21:41;;;;;;;2.00;1.40;;;16.40;93.50;;;;;;5057421;28;20203;-68
2022/05/25 03:24:10;;;;;;;1.73;1.40;;;16.40;93.20;;;;;;5056834;28;20214;-69
2022/05/25 03:26:37;;;;;;;1.08;1.08;;;16.40;93.30;;;;;;5057039;28;20268;-68
2022/05/25 03:29:03;;;;;;;1.20;1.10;;;16.50;93.10;;;;;;5057141;28;20206;-68
2022/05/25 03:31:30;;;;;;;1.27;1.25;;;16.40;93.30;;;;;;5056945;28;20572;-68
2022/05/25 03:33:57;;;;;;;3.42;3.03;;;16.40;93.80;;;;;;5056558;28;20209;-68
2022/05/25 03:36:24;;;;;;;1.20;1.20;;;16.40;93.70;;;;;;5056527;28;20226;-68
2022/05/25 03:38:51;;;;;;;1.17;1.08;;;16.40;93.50;;;;;;5056644;28;20669;-68
2022/05/25 03:41:20;;;;;;;1.63;1.30;;;16.40;93.10;;;;;;5056908;28;20294;-68
2022/05/25 03:43:47;;;;;;;1.95;1.25;;;16.40;93.00;;;;;;5056598;28;20215;-68
2022/05/25 03:46:15;;;;;;;1.17;1.13;;;16.30;93.00;;;;;;5056397;28;20207;-68
2022/05/25 03:48:42;;;;;;;1.20;0.90;;;16.30;92.90;;;;;;5056748;28;20211;-68
2022/05/25 03:51:09;;;;;;;1.30;1.20;;;16.20;93.90;;;;;;5056776;28;20210;-68
2022/05/25 03:53:36;;;;;;;1.20;1.10;;;16.20;94.60;;;;;;5056321;28;20298;-68
2022/05/25 03:56:04;;;;;;;1.20;1.10;;;16.10;94.10;;;;;;5056655;28;20230;-68
2022/05/25 03:58:32;;;;;;;1.63;0.90;;;16.10;94.70;;;;;;5056527;28;20224;-68
2022/05/25 04:00:59;;;;;;;1.88;1.10;;;16.10;93.60;;;;;;5056403;28;20210;-68
2022/05/25 04:03:26;;;;;;;1.38;1.27;;;16.00;94.20;;;;;;5056284;28;20202;-68
2022/05/25 04:05:53;;;;;;;0.77;0.70;;;16.10;93.90;;;;;;5056293;28;20202;-68
2022/05/25 04:08:21;;;;;;;1.25;1.20;;;16.10;93.60;;;;;;5055676;28;20222;-69
2022/05/25 04:10:48;;;;;;;1.30;1.17;;;16.10;93.70;;;;;;5056300;28;20212;-68
2022/05/25 04:13:16;;;;;;;1.30;1.20;;;16.20;94.20;;;;;;5056109;28;20568;-68
2022/05/25 04:15:44;;;;;;;1.40;1.30;;;16.20;94.40;;;;;;5056073;28;20222;-68
2022/05/25 04:18:11;;;;;;;1.20;1.10;;;16.20;95.10;;;;;;5056491;28;20316;-68
2022/05/25 04:20:38;;;;;;;1.30;1.20;;;16.30;95.70;;;;;;5056176;28;20576;-69
2022/05/25 04:23:10;;;;;;;1.13;1.08;;;16.30;95.30;;;;;;5055670;28;20688;-68
2022/05/25 04:25:37;;;;;;;1.50;1.40;;;16.30;95.40;;;;;;5055975;28;20289;-68
2022/05/25 04:28:05;;;;;;;1.20;1.20;;;16.30;95.30;;;;;;5055912;28;20233;-68
2022/05/25 04:30:31;;;;;;;2.53;1.30;;;16.30;95.40;;;;;;5055917;28;20204;-68
2022/05/25 04:33:01;;;;;;;1.88;1.40;;;16.30;95.80;;;;;;5055514;28;20210;-68
2022/05/25 04:35:29;;;;;;;2.13;1.90;;;16.10;96.10;;;;;;5055622;28;20676;-68
2022/05/25 04:37:56;;;;;;;1.63;1.52;;;16.20;95.40;;;;;;5055818;28;20309;-68
2022/05/25 04:40:28;;;;;;;1.95;1.85;;;16.10;96.20;;;;;;5055671;28;20703;-68
2022/05/25 04:42:56;;;;;;;2.05;1.85;;;16.20;96.30;;;;;;5055539;28;20672;-69
2022/05/25 04:45:25;;;;;;;1.85;1.75;;;16.20;96.20;;;;;;5055433;28;20213;-69
2022/05/25 04:47:53;;;;;;;3.47;1.60;;;16.20;96.00;;;;;;5055291;28;20252;-69
2022/05/25 04:50:23;;;;;;;1.35;1.23;;;16.30;95.90;;;;;;5055637;28;20216;-68
2022/05/25 04:52:50;;;;;;;5.75;4.00;;;16.20;96.10;;;;;;5055329;28;20232;-69
2022/05/25 04:58:03;;;;;;;1.40;1.30;;;16.30;96.30;;;;;;5055238;28;20596;-68
2022/05/25 05:00:30;;;;;;;1.48;1.38;;;16.20;96.10;;;;;;5055374;28;20639;-69
2022/05/25 05:02:57;;;;;;;1.10;1.00;;;16.20;96.10;;;;;;5054985;28;20217;-69
2022/05/25 05:05:25;;;;;;;1.55;1.40;;;16.20;96.20;;;;;;5055293;28;20569;-68
2022/05/25 05:07:52;;;;;;;1.40;1.30;;;16.20;97.00;;;;;;5055135;28;20699;-68
2022/05/25 05:10:19;;;;;;;1.50;1.20;;;16.10;96.90;;;;;;5054971;28;20323;-68
2022/05/25 05:12:46;;;;;;;4.45;4.05;;;16.10;96.50;;;;;;5054781;28;20256;-68
2022/05/25 05:15:13;;;;;;;1.73;1.63;;;16.00;97.10;;;;;;5055115;28;20241;-68
2022/05/25 05:17:39;;;;;;;1.40;1.30;;;15.90;97.70;;;;;;5054747;28;20620;-68
2022/05/25 05:20:08;;;;;;;1.42;1.33;;;15.90;96.40;;;;;;5053965;28;20209;-68
2022/05/25 05:22:36;;;;;;;2.20;1.75;;;15.90;96.50;;;;;;5055254;28;20213;-68
2022/05/25 05:25:04;;;;;;;1.20;1.10;;;15.90;96.70;;;;;;5054933;28;20400;-68
2022/05/25 05:27:31;;;;;;;1.40;1.30;;;15.90;97.00;;;;;;5054864;28;20218;-68
2022/05/25 05:30:01;;;;;;;4.95;1.70;;;15.80;97.70;;;;;;5054847;28;20206;-68
2022/05/25 05:32:30;;;;;;;1.83;1.73;;;15.80;97.80;;;;;;5054529;28;20690;-68
2022/05/25 05:34:57;;;;;;;2.25;1.23;;;15.80;96.80;;;;;;5054649;28;20296;-68
2022/05/25 05:37:28;;;;;;;1.27;1.17;;;15.70;97.10;;;;;;5054627;28;20612;-68
2022/05/25 05:39:57;;;;;;;1.60;1.50;;;15.60;97.40;;;;;;5054680;28;20211;-68
2022/05/25 05:42:26;;;;;;;1.30;1.20;;;15.60;97.50;;;;;;5054387;28;20209;-68
2022/05/25 05:44:57;;;;;;;1.38;1.27;;;15.50;96.30;;;;;;5054523;28;20208;-68
2022/05/25 05:47:27;;;;;;;1.92;1.45;;;15.50;98.40;;;;;;5054422;28;20235;-68
2022/05/25 05:49:55;;;;;;;1.13;1.02;;;15.60;98.00;;;;;;5054463;28;20210;-68
2022/05/25 05:52:22;;;;;;;4.25;2.60;;;15.60;97.30;;;;;;5053980;28;20752;-68
2022/05/25 05:54:49;;;;;;;3.55;2.72;;;15.70;97.80;;;;;;5054156;28;20217;-68
2022/05/25 05:57:17;;;;;;;1.45;1.35;;;15.80;97.80;;;;;;5054082;28;20240;-68
2022/05/25 05:59:44;;;;;;;1.50;1.40;;;15.80;98.20;;;;;;5054236;28;20210;-68
2022/05/25 06:02:11;;;;;;;1.27;1.17;;;15.80;97.50;;;;;;5054034;28;20206;-68
2022/05/25 06:04:38;;;;;;;1.40;1.30;;;15.90;96.70;;;;;;5053942;28;20216;-68
2022/05/25 06:07:05;;;;;;;1.25;1.25;;;15.90;97.80;;;;;;5053939;28;20254;-68
2022/05/25 06:09:32;;;;;;;1.65;1.15;;;15.90;97.60;;;;;;5054141;28;20237;-68
2022/05/25 06:11:59;;;;;;;1.52;1.42;;;16.00;96.00;;;;;;5054050;28;20212;-68
2022/05/25 06:14:27;;;;;;;1.08;1.00;;;16.10;96.80;;;;;;5053714;28;20298;-68
2022/05/25 06:19:39;;;;;;;3.05;2.75;;;16.10;96.90;;;;;;5054137;28;20295;-68
2022/05/25 06:22:08;;;;;;;4.03;3.63;;;16.30;97.50;;;;;;5053698;28;20299;-69
2022/05/25 06:24:38;;;;;;;2.00;1.48;;;16.30;96.70;;;;;;5053862;28;20203;-68
2022/05/25 06:27:08;;;;;;;1.45;1.35;;;16.40;96.00;;;;;;5053829;28;20230;-68
2022/05/25 06:29:37;;;;;;;1.52;1.42;;;16.50;96.20;;;;;;5053822;28;20214;-68
2022/05/25 06:32:05;;;;;;;3.65;2.95;;;16.70;95.30;;;;;;5053447;28;20207;-69
2022/05/25 06:34:32;;;;;;;4.72;3.55;;;16.70;95.30;;;;;;5053594;28;20289;-68
2022/05/25 06:36:59;;;;;;;1.92;1.80;;;16.80;95.80;;;;;;5053643;28;20648;-68
2022/05/25 06:39:26;;;;;;;3.40;1.55;;;16.80;95.10;;;;;;5053458;28;20214;-68
2022/05/25 06:41:53;;;;;;;1.65;1.55;;;16.90;94.60;;;;;;5053457;28;20676;-68
2022/05/25 06:44:20;;;;;;;1.40;1.30;;;16.80;94.50;;;;;;5053271;28;20204;-68
2022/05/25 06:46:49;;;;;;;1.52;1.42;;;16.90;96.20;;;;;;5053546;28;20215;-68
2022/05/25 06:49:16;;;;;;;3.00;1.55;;;17.00;95.80;;;;;;5053392;28;20199;-68
2022/05/25 06:51:43;;;;;;;1.50;1.40;;;17.00;96.20;;;;;;5053242;28;20673;-68
2022/05/25 06:54:12;;;;;;;1.98;1.70;;;17.00;95.30;;;;;;5053028;28;20214;-68
2022/05/25 06:56:39;;;;;;;1.35;1.25;;;16.90;95.60;;;;;;5053392;28;20241;-68
2022/05/25 06:59:06;;;;;;;3.00;1.88;;;17.10;95.40;;;;;;5053565;28;20290;-68
2022/05/25 07:01:33;;;;;;;1.83;1.30;;;17.10;94.00;;;;;;5053540;28;20227;-68
2022/05/25 07:04:02;;;;;;;1.65;1.55;;;17.20;95.00;;;;;;5053445;28;20289;-68
2022/05/25 07:06:29;;;;;;;3.40;1.40;;;17.20;94.80;;;;;;5053346;28;20195;-68
2022/05/25 07:08:56;;;;;;;1.30;1.25;;;17.10;95.40;;;;;;5053426;28;20290;-68
2022/05/25 07:11:24;;;;;;;1.60;1.50;;;17.10;94.50;;;;;;5053374;28;20203;-68
2022/05/25 07:13:51;;;;;;;1.70;1.60;;;17.00;94.90;;;;;;5061147;28;20214;-68
2022/05/25 07:16:21;;;;;;;2.55;1.58;;;17.10;94.70;;;;;;5052155;28;20203;-69
2022/05/25 07:18:49;;;;;;;2.40;1.63;;;17.20;95.00;;;;;;5051960;28;20204;-69
2022/05/25 07:21:19;;;;;;;1.98;1.60;;;17.30;93.40;;;;;;5051856;28;20761;-69
2022/05/25 07:23:47;;;;;;;1.75;1.40;;;17.40;93.70;;;;;;5051810;28;20204;-69
2022/05/25 07:26:15;;;;;;;1.60;1.50;;;17.40;94.50;;;;;;5051713;28;20205;-69
2022/05/25 07:28:42;;;;;;;1.63;1.48;;;17.20;93.80;;;;;;5051750;28;20229;-69
2022/05/25 07:31:11;;;;;;;1.55;1.45;;;17.30;93.80;;;;;;5051934;28;20208;-69
2022/05/25 07:33:41;;;;;;;1.73;1.63;;;17.60;94.00;;;;;;5051408;28;20203;-69
2022/05/25 07:36:11;;;;;;;1.90;1.70;;;17.80;94.90;;;;;;5051656;28;20203;-69
2022/05/25 07:38:44;;;;;;;3.92;1.50;;;18.00;92.30;;;;;;5051651;28;20706;-69
2022/05/25 07:41:11;;;;;;;1.65;1.25;;;18.50;92.60;;;;;;5051845;28;20205;-68
2022/05/25 07:43:40;;;;;;;1.67;1.57;;;18.90;90.70;;;;;;5053203;28;20636;-68
2022/05/25 07:46:07;;;;;;;2.20;1.53;;;19.50;87.10;;;;;;5055839;28;20460;-68
2022/05/25 07:48:34;;;;;;;1.50;1.40;;;20.40;84.00;;;;;;5055356;28;20530;-68
2022/05/25 07:51:01;;;;;;;1.30;1.30;;;21.50;83.00;;;;;;5055405;28;20874;-69
2022/05/25 07:56:13;;;;;;;2.40;1.37;;;22.60;74.70;;;;;;5055346;28;20429;-69
2022/05/25 07:58:40;;;;;;;1.37;1.27;;;23.00;75.00;;;;;;5054753;28;20532;-69
2022/05/25 08:01:11;;;;;;;2.27;1.37;;;23.00;72.40;;;;;;5055795;28;20551;-69
2022/05/25 08:06:22;;;;;;;2.00;1.40;;;21.70;74.80;;;;;;5055425;28;20432;-69
2022/05/25 08:08:51;;;;;;;1.47;1.37;;;20.90;74.00;;;;;;5055067;28;20540;-69
2022/05/25 08:11:21;;;;;;;1.30;1.20;;;20.70;75.20;;;;;;5055468;28;20812;-69
2022/05/25 08:13:52;;;;;;;1.60;1.47;;;20.70;79.60;;;;;;5055319;28;20452;-69
2022/05/25 08:16:19;;;;;;;1.40;1.30;;;20.60;83.80;;;;;;5055211;28;20443;-68
2022/05/25 08:18:46;;;;;;;1.40;1.30;;;20.50;79.00;;;;;;5054835;28;20452;-68
2022/05/25 08:21:13;;;;;;;2.20;1.37;;;20.40;79.50;;;;;;5056061;28;20883;-68
2022/05/25 08:23:39;;;;;;;2.60;1.27;;;20.50;78.60;;;;;;5055732;28;20528;-68
2022/05/25 08:26:06;;;;;;;1.27;1.20;;;20.60;77.70;;;;;;5055874;28;20449;-68
2022/05/25 08:28:34;;;;;;;1.50;1.40;;;20.70;80.60;;;;;;5056026;28;20462;-68
2022/05/25 08:31:01;;;;;;;2.00;1.90;;;20.50;78.80;;;;;;5055852;28;20451;-68
2022/05/25 08:33:28;;;;;;;1.40;1.30;;;20.40;78.70;;;;;;5055558;28;20442;-68
2022/05/25 08:35:55;;;;;;;1.40;1.30;;;21.20;78.30;;;;;;5055814;28;20442;-69
2022/05/25 08:38:23;;;;;;;1.60;1.50;;;23.00;76.50;;;;;;5055703;28;20584;-69
2022/05/25 08:40:52;;;;;;;1.23;1.23;;;24.50;71.30;;;;;;5055535;28;20943;-69
2022/05/25 08:43:24;;;;;;;1.37;1.27;;;24.80;64.40;;;;;;5055413;28;20452;-68
2022/05/25 08:45:57;;;;;;;1.47;1.30;;;23.50;67.20;;;;;;5055736;28;20441;-68
2022/05/25 08:48:26;;;;;;;1.30;1.20;;;22.10;69.80;;;;;;5055598;28;20524;-68
2022/05/25 08:51:00;;;;;;;1.43;1.33;;;21.50;76.60;;;;;;5055647;28;20468;-68
2022/05/25 08:53:26;;;;;;;1.30;1.20;;;21.90;77.50;;;;;;5055261;28;20458;-68
2022/05/25 08:56:02;;;;;;;1.13;1.10;;;22.50;70.80;;;;;;5055253;28;20933;-68
2022/05/25 08:58:40;;;;;;;1.17;1.17;;;23.30;73.00;;;;;;5055125;28;20982;-68
2022/05/25 09:01:11;;;;;;;1.50;1.40;;;24.00;69.60;;;;;;5055402;28;20450;-68
2022/05/25 09:03:49;;;;;;;1.47;1.37;;;25.40;66.30;;;;;;5055251;28;20444;-69
2022/05/25 09:06:24;;;;;;;1.00;1.00;;;25.40;62.00;;;;;;5055118;28;20445;-68
2022/05/25 09:09:01;;;;;;;1.40;1.30;;;25.20;64.00;;;;;;5055373;28;20432;-68
2022/05/25 09:11:34;;;;;;;3.40;3.10;;;25.70;59.30;;;;;;5055217;28;20533;-69
2022/05/25 09:14:05;;;;;;;3.20;2.90;;;26.60;58.80;;;;;;5055068;28;20472;-68
2022/05/25 09:16:36;;;;;;;1.30;1.20;;;26.70;55.90;;;;;;5055087;28;20456;-69
2022/05/25 09:19:07;;;;;;;1.73;1.37;;;26.30;56.40;;;;;;5055071;28;20478;-69
2022/05/25 09:21:40;;;;;;;1.73;1.63;;;25.50;55.40;;;;;;5055007;28;20805;-68
2022/05/25 09:24:12;;;;;;;1.53;1.43;;;24.30;57.60;;;;;;5054571;28;20448;-68
2022/05/25 09:26:39;;;;;;;1.20;1.10;;;23.60;59.40;;;;;;5054668;28;20993;-68
2022/05/25 09:29:08;;;;;;;1.30;1.20;;;24.30;58.20;;;;;;5054939;28;20475;-68
2022/05/25 09:31:43;;;;;;;1.20;1.10;;;24.60;57.90;;;;;;5054834;28;20447;-68
2022/05/25 09:34:15;;;;;;;1.23;1.13;;;25.30;56.20;;;;;;5054442;28;20438;-68
2022/05/25 09:36:48;;;;;;;2.57;2.40;;;25.60;56.20;;;;;;5054885;28;20461;-69
2022/05/25 09:39:17;;;;;;;1.20;1.20;;;24.90;56.90;;;;;;5054688;28;20443;-68
2022/05/25 09:41:47;;;;;;;1.37;1.27;;;23.80;57.70;;;;;;5054457;28;20452;-68
2022/05/25 09:44:18;;;;;;;1.20;1.10;;;23.10;61.20;;;;;;5054293;28;20438;-68
2022/05/25 09:46:50;;;;;;;1.30;1.20;;;22.30;59.50;;;;;;5054477;28;20473;-68
2022/05/25 09:49:29;;;;;;;1.10;1.00;;;21.80;61.00;;;;;;5054279;28;20444;-68
2022/05/25 09:51:58;;;;;;;2.47;1.50;;;21.50;63.60;;;;;;5054455;28;20807;-68
2022/05/25 09:54:31;;;;;;;1.03;1.03;;;21.30;65.20;;;;;;5053974;28;20450;-68
2022/05/25 09:57:02;;;;;;;1.27;1.27;;;21.20;65.00;;;;;;5054162;28;20465;-68
2022/05/25 09:59:34;;;;;;;1.57;1.20;;;22.30;64.00;;;;;;5054343;28;20436;-68
2022/05/25 10:02:19;;;;;;;1.20;1.13;;;23.60;62.60;;;;;;5054294;28;20461;-68
2022/05/25 10:04:52;;;;;;;1.57;1.20;;;24.50;56.70;;;;;;5054257;28;20460;-68
2022/05/25 10:07:21;;;;;;;2.83;1.57;;;25.30;56.40;;;;;;5053611;28;20473;-69
2022/05/25 10:09:51;;;;;;;1.40;1.30;;;25.90;53.90;;;;;;5054105;28;20457;-69
2022/05/25 10:12:24;;;;;;;2.73;1.10;;;25.40;54.10;;;;;;5053947;28;20442;-68
2022/05/25 10:15:01;;;;;;;1.50;1.40;;;24.20;53.40;;;;;;5054000;28;20445;-69
2022/05/25 10:17:35;;;;;;;3.63;1.30;;;24.50;59.00;;;;;;5053759;28;20481;-68
2022/05/25 10:20:05;;;;;;;1.43;1.10;;;24.90;57.40;;;;;;5054076;28;20495;-68
2022/05/25 10:22:38;;;;;;;3.50;3.07;;;26.30;56.00;;;;;;5053831;28;20435;-69
2022/05/25 10:25:08;;;;;;;1.87;1.77;;;27.80;53.30;;;;;;5053925;28;20458;-69
2022/05/25 10:27:40;;;;;;;1.10;1.10;;;29.40;49.40;;;;;;5054046;28;20549;-69
2022/05/25 10:39:19;;;;;;;1.10;1.10;;;26.70;50.40;;;;;;5045138;28;20587;-68
2022/05/25 10:42:02;;;;;;;1.30;1.20;;;26.60;50.70;;;;;;5053683;28;20521;-69
2022/05/25 10:44:37;;;;;;;1.10;1.10;;;25.70;49.90;;;;;;5053386;28;20923;-68
2022/05/25 10:47:05;;;;;;;1.30;1.23;;;24.50;51.50;;;;;;5053443;28;20468;-68
2022/05/25 10:49:37;;;;;;;1.20;1.10;;;23.70;53.90;;;;;;5053619;28;20505;-68
2022/05/25 10:52:09;;;;;;;1.80;1.40;;;22.90;55.90;;;;;;5053308;28;20928;-68
2022/05/25 10:54:47;;;;;;;2.47;1.17;;;22.10;57.20;;;;;;5053294;28;20453;-68
2022/05/25 10:57:37;;;;;;;1.40;1.10;;;21.60;57.40;;;;;;5053248;28;20558;-68
2022/05/25 11:00:07;;;;;;;1.30;1.20;;;21.30;58.00;;;;;;5053234;28;20434;-68
2022/05/25 11:02:51;;;;;;;2.60;2.37;;;20.90;60.50;;;;;;5053210;28;20447;-68
2022/05/25 11:05:30;;;;;;;1.33;1.23;;;20.70;61.30;;;;;;5053411;28;20444;-68
2022/05/25 11:08:04;;;;;;;1.57;1.47;;;20.70;60.90;;;;;;5053343;28;20483;-68
2022/05/25 11:10:45;;;;;;;1.57;1.10;;;21.00;63.40;;;;;;5054124;28;20794;-68
2022/05/25 11:13:30;;;;;;;1.30;1.20;;;21.40;59.80;;;;;;5053030;28;20433;-68
2022/05/25 11:16:05;;;;;;;1.20;1.10;;;21.70;60.60;;;;;;5053364;28;20430;-68
2022/05/25 11:19:06;;;;;;;1.43;1.33;;;21.50;59.30;;;;;;5054634;28;20484;-68
2022/05/25 11:21:41;;;;;;;1.40;1.30;;;21.20;60.70;;;;;;5057336;28;20467;-68
2022/05/25 11:24:24;;;;;;;1.90;1.30;;;21.30;65.20;;;;;;5056955;28;20451;-68
2022/05/25 11:27:20;;;;;;;1.30;1.20;;;21.40;61.30;;;;;;5057074;28;20476;-68
2022/05/25 11:30:04;;;;;;;1.50;1.37;;;21.30;59.90;;;;;;5057184;28;20437;-68
2022/05/25 11:32:42;;;;;;;1.47;1.37;;;21.00;63.10;;;;;;5055906;28;20464;-68
2022/05/25 11:35:38;;;;;;;1.70;1.60;;;20.90;62.00;;;;;;5057038;28;20788;-69
2022/05/25 11:38:21;;;;;;;1.03;1.03;;;20.80;63.80;;;;;;5056865;28;20492;-68
2022/05/25 11:40:57;;;;;;;1.00;1.00;;;20.70;63.70;;;;;;5056946;28;20444;-68
2022/05/25 11:43:46;;;;;;;1.43;1.03;;;20.50;63.30;;;;;;5056601;28;20631;-68
2022/05/25 11:46:22;;;;;;;1.30;1.20;;;20.30;62.20;;;;;;5054287;28;20461;-68
2022/05/25 11:49:20;;;;;;;1.60;1.30;;;20.20;66.40;;;;;;5056958;28;20439;-68
2022/05/25 11:52:00;;;;;;;1.37;1.27;;;20.30;65.20;;;;;;5056669;28;20449;-69
2022/05/25 11:54:43;;;;;;;3.80;3.33;;;20.60;65.30;;;;;;5056321;28;20456;-68
2022/05/25 11:57:17;;;;;;;1.40;1.30;;;21.00;64.30;;;;;;5056441;28;20476;-68
2022/05/25 12:00:08;;;;;;;1.27;1.17;;;21.40;63.20;;;;;;5056301;28;20480;-68
2022/05/25 12:03:04;;;;;;;1.23;1.13;;;21.70;60.20;;;;;;5056371;28;20444;-68
2022/05/25 12:05:39;;;;;;;1.23;1.13;;;21.90;61.30;;;;;;5053373;28;20461;-68
2022/05/25 12:08:36;;;;;;;2.30;2.10;;;21.80;59.30;;;;;;5056156;28;20461;-68
2022/05/25 12:11:11;;;;;;;2.43;1.30;;;21.90;60.20;;;;;;5055997;28;20448;-68
2022/05/25 12:13:45;;;;;;;1.40;1.30;;;21.80;62.30;;;;;;5056197;28;20444;-68
2022/05/25 12:16:19;;;;;;;1.77;1.50;;;21.60;60.80;;;;;;5056390;28;20788;-68
2022/05/25 12:18:53;;;;;;;1.77;1.67;;;21.60;67.80;;;;;;5056231;28;20470;-68
2022/05/25 12:21:24;;;;;;;1.33;1.23;;;21.60;65.00;;;;;;5056265;28;20467;-68
2022/05/25 12:23:57;;;;;;;2.83;1.20;;;21.50;68.30;;;;;;5056034;28;20445;-68
2022/05/25 12:26:27;;;;;;;1.00;1.00;;;21.40;71.30;;;;;;5055904;28;20934;-68
2022/05/25 12:29:06;;;;;;;1.30;1.20;;;21.20;64.30;;;;;;5055634;28;20437;-68
2022/05/25 12:31:36;;;;;;;1.40;1.30;;;21.30;67.30;;;;;;5055937;28;20465;-68
2022/05/25 12:34:03;;;;;;;1.50;1.40;;;21.60;65.60;;;;;;5055566;28;20447;-68
2022/05/25 12:36:32;;;;;;;1.20;1.10;;;21.90;62.50;;;;;;5055817;28;20450;-68
2022/05/25 12:38:59;;;;;;;1.77;1.50;;;22.10;61.30;;;;;;5055562;28;20477;-68
2022/05/25 12:41:33;;;;;;;1.03;1.00;;;22.50;62.00;;;;;;5055607;28;20530;-68
2022/05/25 12:44:03;;;;;;;2.10;1.30;;;22.80;57.50;;;;;;5055368;28;20461;-68
2022/05/25 12:49:47;;;;;;;1.90;1.20;;;22.80;58.20;;;;;;5055597;28;20829;-68
2022/05/25 12:52:43;;;;;;;1.53;1.40;;;23.00;56.90;;;;;;5055315;28;20928;-68
2022/05/25 12:55:33;;;;;;;1.13;1.03;;;23.20;58.70;;;;;;5055307;28;20468;-68
2022/05/25 12:58:02;;;;;;;1.60;1.50;;;23.20;58.10;;;;;;5055148;28;20463;-68
2022/05/25 13:00:39;;;;;;;1.60;1.50;;;23.30;59.30;;;;;;5055420;28;20448;-68
2022/05/25 13:03:34;;;;;;;2.17;1.43;;;23.50;59.80;;;;;;5055279;28;20848;-68
2022/05/25 13:06:02;;;;;;;1.50;1.10;;;23.80;58.70;;;;;;5055375;28;20471;-68
2022/05/25 13:09:08;;;;;;;2.07;1.40;;;23.40;58.40;;;;;;5055306;28;20545;-68
2022/05/25 13:11:44;;;;;;;1.63;1.30;;;23.00;58.10;;;;;;5055287;28;20536;-68
2022/05/25 13:14:44;;;;;;;1.40;1.30;;;22.50;58.40;;;;;;5054960;28;20931;-68
2022/05/25 13:17:45;;;;;;;1.33;1.23;;;21.90;59.80;;;;;;5050089;28;20474;-68
2022/05/25 13:20:47;;;;;;;1.20;1.10;;;21.70;60.10;;;;;;5055019;28;20539;-68
2022/05/25 13:23:52;;;;;;;2.50;1.23;;;21.70;63.20;;;;;;5054738;28;20449;-68
2022/05/25 13:26:25;;;;;;;2.03;1.30;;;21.80;64.10;;;;;;5054547;28;20446;-68
2022/05/25 13:28:58;;;;;;;1.67;1.10;;;22.10;59.80;;;;;;5054995;28;20430;-68
2022/05/25 13:31:35;;;;;;;1.10;1.10;;;22.50;59.30;;;;;;5054806;28;20800;-68
2022/05/25 13:34:12;;;;;;;2.30;1.37;;;22.60;57.70;;;;;;5054420;28;20441;-68
2022/05/25 13:36:45;;;;;;;1.53;1.43;;;22.30;59.00;;;;;;5054691;28;20576;-68
2022/05/25 13:39:18;;;;;;;1.80;1.20;;;22.10;58.70;;;;;;5054779;28;20470;-68
2022/05/25 13:41:50;;;;;;;1.00;1.00;;;21.90;62.00;;;;;;5053830;28;20560;-68